Time;durP1;ratioP1;P1;durP2;ratioP2;P2;SDS_P1;SDS_P2;PMS_P1;PMS_P2;Temp;Humidity;BMP_temperature;BMP_pressure;BME280_temperature;BME280_humidity;BME280_pressure;Samples;Min_cycle;Max_cycle;Signal;HPM_P1;HPM_P2
2021/04/06 00:00:27;;;;;;;8.18;4.13;;;1.60;1.00;;;;;;5093699;28;20183;-69
2021/04/06 00:03:01;;;;;;;4.50;3.72;;;1.80;1.00;;;;;;5093642;28;20567;-68
2021/04/06 00:05:28;;;;;;;5.97;3.70;;;1.80;1.00;;;;;;5093636;28;20163;-69
2021/04/06 00:07:56;;;;;;;12.82;5.45;;;1.80;99.90;;;;;;5093269;28;20187;-69
2021/04/06 00:10:24;;;;;;;11.75;4.03;;;1.90;99.90;;;;;;5093471;28;20164;-68
2021/04/06 00:12:53;;;;;;;11.43;4.90;;;1.80;99.90;;;;;;5093435;28;20192;-68
2021/04/06 00:15:20;;;;;;;11.30;3.97;;;1.90;99.90;;;;;;5093476;28;20179;-68
2021/04/06 00:17:48;;;;;;;12.38;4.10;;;1.70;99.90;;;;;;5093641;28;20570;-68
2021/04/06 00:20:16;;;;;;;6.75;3.08;;;2.00;1.00;;;;;;5093406;28;20644;-69
2021/04/06 00:22:43;;;;;;;8.65;3.72;;;1.80;1.00;;;;;;5093225;28;20199;-68
2021/04/06 00:25:14;;;;;;;7.45;4.38;;;1.90;1.00;;;;;;5093326;28;20172;-68
2021/04/06 00:27:43;;;;;;;8.05;3.15;;;2.00;1.00;;;;;;5093314;28;20151;-68
2021/04/06 00:30:12;;;;;;;7.70;3.38;;;1.90;1.00;;;;;;5093275;28;20170;-67
2021/04/06 00:32:39;;;;;;;6.90;3.40;;;2.00;1.00;;;;;;5093299;28;20683;-70
2021/04/06 00:35:07;;;;;;;12.00;3.38;;;2.00;1.00;;;;;;5093110;28;20217;-69
2021/04/06 00:37:41;;;;;;;7.38;4.00;;;2.00;99.90;;;;;;5093122;28;20163;-69
2021/04/06 00:40:10;;;;;;;11.80;3.20;;;2.10;99.90;;;;;;5093382;28;20253;-69
2021/04/06 00:42:36;;;;;;;8.95;3.83;;;2.40;99.90;;;;;;5092878;28;20726;-69
2021/04/06 00:45:08;;;;;;;5.00;3.33;;;2.30;99.90;;;;;;5091799;28;20236;-69
2021/04/06 00:47:34;;;;;;;18.88;3.20;;;2.10;1.00;;;;;;5093079;28;20164;-69
2021/04/06 00:50:07;;;;;;;11.88;3.70;;;2.00;99.90;;;;;;5092203;28;20171;-69
2021/04/06 00:52:33;;;;;;;15.32;3.42;;;2.00;99.90;;;;;;5092980;28;20187;-69
2021/04/06 00:55:00;;;;;;;16.37;3.67;;;2.20;99.90;;;;;;5093227;28;20179;-69
2021/04/06 00:57:28;;;;;;;9.30;2.75;;;2.10;1.00;;;;;;5093206;28;20221;-69
2021/04/06 01:00:16;;;;;;;7.35;2.92;;;2.20;99.90;;;;;;5093004;28;20640;-69
2021/04/06 01:03:03;;;;;;;17.20;3.80;;;2.10;99.90;;;;;;5091504;28;20211;-69
2021/04/06 01:05:53;;;;;;;10.60;4.07;;;2.30;90.60;;;;;;5093178;28;20162;-69
2021/04/06 01:08:18;;;;;;;14.80;4.60;;;2.30;1.00;;;;;;5092796;28;20194;-69
2021/04/06 01:10:46;;;;;;;7.77;3.20;;;2.40;1.00;;;;;;5093899;28;20182;-69
2021/04/06 01:13:12;;;;;;;8.32;3.30;;;2.50;1.00;;;;;;5093995;28;20191;-69
2021/04/06 01:15:39;;;;;;;12.35;4.20;;;2.50;1.00;;;;;;5094071;28;20183;-69
2021/04/06 01:18:05;;;;;;;10.07;3.97;;;2.40;99.90;;;;;;5092801;28;20175;-69
2021/04/06 01:20:31;;;;;;;11.67;2.70;;;2.50;1.00;;;;;;5093008;28;20170;-67
2021/04/06 01:22:58;;;;;;;11.30;3.33;;;2.60;99.90;;;;;;5092530;28;20518;-68
2021/04/06 01:25:25;;;;;;;7.47;3.53;;;2.60;99.90;;;;;;5092650;28;20171;-68
2021/04/06 01:28:12;;;;;;;13.30;3.50;;;2.60;99.90;;;;;;5092567;28;20163;-68
2021/04/06 01:30:48;;;;;;;14.15;4.20;;;2.50;99.90;;;;;;5092625;28;20163;-68
2021/04/06 01:33:16;;;;;;;10.57;3.45;;;2.60;99.90;;;;;;5091707;28;20195;-68
2021/04/06 01:35:49;;;;;;;8.68;2.75;;;2.50;99.90;;;;;;5092538;28;20171;-68
2021/04/06 01:38:16;;;;;;;10.55;3.25;;;2.60;99.90;;;;;;5091167;28;20217;-68
2021/04/06 01:40:43;;;;;;;7.45;4.53;;;2.50;99.90;;;;;;5092676;28;20175;-68
2021/04/06 01:43:11;;;;;;;7.90;2.55;;;2.50;99.90;;;;;;5092576;28;20548;-69
2021/04/06 01:45:44;;;;;;;7.65;2.95;;;2.50;1.00;;;;;;5092714;28;20242;-68
2021/04/06 01:48:12;;;;;;;14.23;2.95;;;2.40;99.90;;;;;;5092682;28;20159;-68
2021/04/06 01:50:37;;;;;;;7.43;3.00;;;2.40;99.90;;;;;;5092294;28;20329;-68
2021/04/06 01:53:03;;;;;;;7.13;3.10;;;2.50;99.90;;;;;;5090985;28;20282;-68
2021/04/06 01:55:34;;;;;;;14.00;3.57;;;2.30;1.00;;;;;;5092605;28;20175;-68
2021/04/06 01:58:00;;;;;;;8.15;4.10;;;2.20;99.90;;;;;;5092558;28;20375;-68
2021/04/06 02:02:52;;;;;;;13.60;4.57;;;2.00;65.20;;;;;;5096133;28;20634;-68
2021/04/06 02:05:19;;;;;;;11.85;3.60;;;2.10;99.90;;;;;;5095993;28;20163;-68
2021/04/06 02:07:47;;;;;;;5.43;2.15;;;2.10;24.30;;;;;;5095902;28;20245;-69
2021/04/06 02:10:14;;;;;;;9.48;2.83;;;2.20;1.00;;;;;;5095882;28;20156;-68
2021/04/06 02:12:44;;;;;;;8.82;3.30;;;2.10;99.90;;;;;;5095784;28;20187;-68
2021/04/06 02:15:12;;;;;;;18.08;3.30;;;2.40;1.00;;;;;;5095817;28;20186;-68
2021/04/06 02:17:50;;;;;;;10.45;3.00;;;2.30;83.80;;;;;;5095695;28;20235;-69
2021/04/06 02:20:26;;;;;;;12.05;3.70;;;2.20;1.00;;;;;;5095653;28;20546;-68
2021/04/06 02:23:00;;;;;;;13.90;4.13;;;2.10;1.00;;;;;;5095620;28;20198;-68
2021/04/06 02:25:26;;;;;;;16.38;4.72;;;2.20;99.90;;;;;;5095486;28;20167;-68
2021/04/06 02:27:52;;;;;;;7.95;3.88;;;2.30;99.90;;;;;;5094305;28;20179;-69
2021/04/06 02:30:18;;;;;;;7.17;3.60;;;2.50;99.90;;;;;;5095442;28;20574;-69
2021/04/06 02:32:44;;;;;;;8.03;2.70;;;2.20;1.00;;;;;;5095324;28;20453;-68
2021/04/06 02:35:13;;;;;;;5.90;2.83;;;2.00;99.90;;;;;;5095890;28;20406;-69
2021/04/06 02:37:42;;;;;;;13.18;4.45;;;1.90;11.00;;;;;;5095887;28;20172;-68
2021/04/06 02:40:10;;;;;;;14.32;5.95;;;2.00;99.90;;;;;;5095517;28;20168;-68
2021/04/06 02:42:41;;;;;;;12.30;5.22;;;2.00;99.90;;;;;;5095024;28;20199;-69
2021/04/06 02:45:10;;;;;;;17.27;6.22;;;1.90;99.90;;;;;;5095388;28;20554;-69
2021/04/06 02:47:42;;;;;;;22.50;5.55;;;2.00;1.00;;;;;;5095046;28;20160;-69
2021/04/06 02:50:28;;;;;;;7.88;6.07;;;2.20;1.00;;;;;;5095309;28;20144;-69
2021/04/06 02:52:54;;;;;;;14.57;5.68;;;2.10;1.00;;;;;;5094754;28;20572;-69
2021/04/06 02:55:22;;;;;;;11.48;4.55;;;2.00;1.00;;;;;;5094875;28;20178;-68
2021/04/06 02:57:52;;;;;;;13.65;4.55;;;2.00;1.00;;;;;;5095459;28;20628;-68
2021/04/06 03:00:26;;;;;;;11.57;4.95;;;2.00;1.00;;;;;;5095111;28;20168;-68
2021/04/06 03:02:52;;;;;;;11.07;3.63;;;2.10;34.70;;;;;;5094632;28;20206;-68
2021/04/06 03:05:38;;;;;;;6.15;2.80;;;2.20;99.90;;;;;;5094765;28;20543;-69
2021/04/06 03:08:06;;;;;;;11.45;4.30;;;2.00;1.00;;;;;;5094746;28;20180;-68
2021/04/06 03:10:32;;;;;;;9.75;3.40;;;2.00;1.00;;;;;;5094724;28;20553;-69
2021/04/06 03:13:13;;;;;;;10.43;2.95;;;1.90;1.00;;;;;;5093906;28;20187;-69
2021/04/06 03:15:41;;;;;;;14.27;4.07;;;1.80;99.90;;;;;;5094538;28;20155;-69
2021/04/06 03:18:08;;;;;;;5.45;2.00;;;1.90;99.90;;;;;;5094798;28;20532;-69
2021/04/06 03:20:35;;;;;;;5.13;2.03;;;1.90;99.90;;;;;;5094707;28;20577;-69
2021/04/06 03:23:03;;;;;;;8.70;2.55;;;1.80;99.90;;;;;;5094269;28;20202;-69
2021/04/06 03:25:32;;;;;;;9.75;2.25;;;2.00;99.90;;;;;;5094704;28;20177;-69
2021/04/06 03:28:07;;;;;;;9.32;2.65;;;1.90;99.90;;;;;;5094534;28;20540;-69
2021/04/06 03:30:37;;;;;;;9.77;2.67;;;1.90;9.60;;;;;;5094397;28;20151;-69
2021/04/06 03:33:08;;;;;;;6.10;2.70;;;1.90;1.00;;;;;;5094152;28;20191;-69
2021/04/06 03:35:36;;;;;;;7.90;2.83;;;2.00;99.90;;;;;;5094472;28;20160;-68
2021/04/06 03:38:03;;;;;;;12.52;2.90;;;2.00;99.90;;;;;;5094171;28;20199;-69
2021/04/06 03:40:34;;;;;;;12.88;2.97;;;2.00;62.50;;;;;;5094105;28;20609;-69
2021/04/06 03:43:37;;;;;;;10.38;3.42;;;2.00;99.90;;;;;;5094220;28;20199;-69
2021/04/06 03:46:04;;;;;;;14.93;3.58;;;2.10;1.00;;;;;;5081608;28;20542;-68
2021/04/06 03:48:31;;;;;;;13.25;3.70;;;2.00;1.00;;;;;;5093935;28;20168;-68
2021/04/06 03:50:58;;;;;;;11.15;4.22;;;2.00;46.50;;;;;;5093978;28;20195;-68
2021/04/06 03:53:26;;;;;;;6.68;2.78;;;2.00;99.90;;;;;;5093818;28;20600;-69
2021/04/06 03:56:13;;;;;;;14.32;4.55;;;2.00;1.00;;;;;;5094252;28;20162;-69
2021/04/06 03:58:48;;;;;;;10.82;4.18;;;2.10;99.90;;;;;;5094115;28;20148;-69
2021/04/06 04:01:14;;;;;;;13.63;3.78;;;2.10;99.90;;;;;;5092400;28;20239;-68
2021/04/06 04:03:40;;;;;;;6.70;3.45;;;1.90;1.00;;;;;;5093642;28;20183;-69
2021/04/06 04:06:06;;;;;;;7.05;3.58;;;2.10;1.00;;;;;;5093643;28;20250;-69
2021/04/06 04:08:32;;;;;;;9.03;4.13;;;2.30;1.00;;;;;;5093539;28;20211;-68
2021/04/06 04:10:58;;;;;;;13.57;4.87;;;2.40;26.60;;;;;;5092298;28;20437;-68
2021/04/06 04:13:23;;;;;;;18.20;5.17;;;2.20;99.90;;;;;;5093738;28;20195;-68
2021/04/06 04:15:49;;;;;;;12.70;4.60;;;2.20;99.90;;;;;;5093462;28;20578;-68
2021/04/06 04:18:14;;;;;;;13.07;4.67;;;2.20;1.00;;;;;;5092171;28;20630;-68
2021/04/06 04:20:40;;;;;;;11.10;5.23;;;2.00;21.60;;;;;;5093668;28;20167;-68
2021/04/06 04:23:06;;;;;;;17.23;5.10;;;1.90;1.00;;;;;;5093327;28;20195;-68
2021/04/06 04:25:31;;;;;;;10.80;4.90;;;2.10;99.90;;;;;;5093302;28;20402;-68
2021/04/06 04:27:57;;;;;;;11.80;5.00;;;2.00;99.90;;;;;;5093600;28;20191;-68
2021/04/06 04:33:21;;;;;;;10.13;4.38;;;1.90;99.90;;;;;;5069900;28;20253;-68
2021/04/06 04:35:46;;;;;;;12.33;4.30;;;2.10;99.90;;;;;;5093392;28;20164;-68
2021/04/06 04:38:12;;;;;;;7.70;4.03;;;2.10;2.40;;;;;;5093427;28;20533;-68
2021/04/06 04:40:42;;;;;;;9.83;3.97;;;2.10;1.00;;;;;;5093041;28;20826;-68
2021/04/06 04:43:12;;;;;;;5.65;3.45;;;2.10;99.90;;;;;;5093157;28;20207;-67
2021/04/06 04:45:37;;;;;;;16.27;3.60;;;2.20;1.00;;;;;;5092955;28;20217;-67
2021/04/06 04:48:04;;;;;;;13.63;4.63;;;2.30;1.00;;;;;;5093180;28;20635;-68
2021/04/06 04:50:31;;;;;;;5.95;2.75;;;2.20;99.90;;;;;;5093164;28;20217;-67
2021/04/06 04:52:57;;;;;;;6.45;3.03;;;2.00;99.90;;;;;;5093071;28;20191;-67
2021/04/06 04:55:23;;;;;;;8.93;3.37;;;2.00;1.00;;;;;;5092908;28;20167;-67
2021/04/06 04:57:48;;;;;;;16.43;4.50;;;2.10;1.00;;;;;;5091613;28;20463;-70
2021/04/06 05:00:16;;;;;;;13.43;3.70;;;2.30;1.00;;;;;;5092951;28;20445;-68
2021/04/06 05:02:42;;;;;;;11.65;3.85;;;2.20;99.90;;;;;;5092835;28;20707;-68
2021/04/06 05:05:09;;;;;;;11.05;3.83;;;2.10;1.00;;;;;;5092649;28;20171;-68
2021/04/06 05:07:39;;;;;;;11.80;3.80;;;2.20;99.90;;;;;;5092508;28;20564;-68
2021/04/06 05:10:10;;;;;;;6.03;2.92;;;2.20;99.90;;;;;;5093068;28;20215;-68
2021/04/06 05:12:36;;;;;;;10.25;4.18;;;2.30;1.00;;;;;;5092981;28;20192;-67
2021/04/06 05:15:04;;;;;;;11.85;4.57;;;2.20;1.00;;;;;;5092826;28;20174;-68
2021/04/06 05:17:29;;;;;;;10.80;4.10;;;2.10;1.00;;;;;;5092780;28;20171;-67
2021/04/06 05:19:55;;;;;;;14.00;4.00;;;2.00;99.90;;;;;;5092775;28;20179;-67
2021/04/06 05:22:20;;;;;;;11.13;2.90;;;1.90;1.00;;;;;;5092673;28;20277;-68
2021/04/06 05:24:46;;;;;;;18.33;7.23;;;2.00;1.00;;;;;;5092581;28;20632;-68
2021/04/06 05:27:11;;;;;;;11.70;3.10;;;2.00;99.90;;;;;;5092502;28;20164;-68
2021/04/06 05:29:37;;;;;;;9.20;3.30;;;2.00;99.90;;;;;;5092684;28;20573;-68
2021/04/06 05:32:03;;;;;;;10.40;3.70;;;2.30;99.90;;;;;;5092887;28;20179;-68
2021/04/06 05:34:28;;;;;;;11.10;3.33;;;2.10;99.90;;;;;;5092117;28;20255;-68
2021/04/06 05:36:54;;;;;;;11.50;3.10;;;2.10;99.90;;;;;;5095856;28;20431;-68
2021/04/06 05:39:20;;;;;;;9.07;3.47;;;2.20;99.90;;;;;;5096491;28;20766;-68
2021/04/06 05:41:47;;;;;;;11.13;2.77;;;2.10;1.00;;;;;;5096531;28;20195;-68
2021/04/06 05:44:14;;;;;;;10.80;3.00;;;2.10;1.00;;;;;;5096023;28;20179;-68
2021/04/06 05:46:43;;;;;;;5.45;2.83;;;2.20;1.00;;;;;;5096032;28;20164;-68
2021/04/06 05:49:14;;;;;;;8.77;2.95;;;2.10;1.00;;;;;;5094582;28;20621;-68
2021/04/06 05:51:41;;;;;;;9.68;2.42;;;2.30;1.00;;;;;;5096050;28;20197;-67
2021/04/06 05:54:09;;;;;;;10.48;3.05;;;2.00;1.00;;;;;;5095855;28;20191;-69
2021/04/06 05:56:35;;;;;;;8.60;2.20;;;2.20;1.00;;;;;;5095896;28;20179;-69
2021/04/06 05:59:00;;;;;;;7.97;2.80;;;2.20;1.00;;;;;;5095761;28;20167;-69
2021/04/06 06:01:30;;;;;;;12.43;3.70;;;2.40;1.00;;;;;;5095873;28;20273;-68
2021/04/06 06:03:56;;;;;;;12.07;2.40;;;2.40;99.90;;;;;;5095700;28;20571;-68
2021/04/06 06:06:23;;;;;;;8.93;2.67;;;2.20;99.90;;;;;;5095676;28;20582;-68
2021/04/06 06:08:52;;;;;;;13.35;2.00;;;2.30;99.90;;;;;;5095519;28;20183;-69
2021/04/06 06:11:18;;;;;;;8.32;2.05;;;2.30;99.90;;;;;;5094199;28;20171;-69
2021/04/06 06:13:44;;;;;;;14.27;3.80;;;2.20;99.90;;;;;;5095395;28;20188;-69
2021/04/06 06:16:13;;;;;;;19.40;5.40;;;2.20;99.90;;;;;;5094862;28;20466;-68
2021/04/06 06:18:56;;;;;;;8.70;2.35;;;2.30;99.90;;;;;;5095864;28;20167;-68
2021/04/06 06:21:24;;;;;;;9.88;2.30;;;2.20;99.90;;;;;;5095880;28;20206;-69
2021/04/06 06:23:50;;;;;;;17.27;2.08;;;2.20;99.90;;;;;;5096237;28;20188;-69
2021/04/06 06:26:18;;;;;;;12.98;3.22;;;2.20;99.90;;;;;;5095848;28;20163;-69
2021/04/06 06:29:06;;;;;;;5.03;1.80;;;2.20;99.90;;;;;;5095923;28;20164;-68
2021/04/06 06:31:49;;;;;;;18.65;2.80;;;2.20;99.90;;;;;;5095455;28;20160;-68
2021/04/06 06:34:31;;;;;;;6.88;1.98;;;2.30;99.90;;;;;;5095514;28;20195;-68
2021/04/06 06:37:12;;;;;;;7.10;2.70;;;2.60;99.90;;;;;;5095375;28;20174;-68
2021/04/06 06:39:40;;;;;;;7.10;2.92;;;2.70;99.90;;;;;;5095389;28;20473;-68
2021/04/06 06:42:11;;;;;;;10.82;1.67;;;2.60;99.90;;;;;;5095214;28;20195;-69
2021/04/06 06:44:37;;;;;;;4.18;2.67;;;2.30;16.70;;;;;;5095343;28;20197;-68
2021/04/06 06:47:13;;;;;;;13.38;3.15;;;2.30;94.40;;;;;;5093721;28;20159;-68
2021/04/06 06:49:41;;;;;;;9.40;2.25;;;2.40;99.90;;;;;;5095011;28;20179;-68
2021/04/06 06:52:21;;;;;;;8.10;3.72;;;2.20;99.90;;;;;;5094866;28;20168;-68
2021/04/06 06:54:51;;;;;;;8.25;2.72;;;2.20;99.90;;;;;;5094961;28;20574;-68
2021/04/06 06:57:16;;;;;;;11.05;2.50;;;2.10;99.90;;;;;;5094636;28;20227;-68
2021/04/06 06:59:46;;;;;;;10.20;2.37;;;2.10;99.90;;;;;;5093275;28;20258;-68
2021/04/06 07:02:29;;;;;;;6.78;2.00;;;2.10;99.90;;;;;;5094567;28;20472;-68
2021/04/06 07:05:13;;;;;;;7.30;2.10;;;2.40;99.90;;;;;;5094907;28;20175;-68
2021/04/06 07:07:58;;;;;;;4.80;2.40;;;2.30;99.90;;;;;;5094450;28;20208;-68
2021/04/06 07:10:29;;;;;;;13.00;3.35;;;2.50;99.90;;;;;;5094546;28;20172;-69
2021/04/06 07:13:01;;;;;;;11.13;2.83;;;2.20;99.90;;;;;;5094361;28;20274;-68
2021/04/06 07:15:29;;;;;;;7.38;2.35;;;2.30;99.90;;;;;;5093580;28;20172;-68
2021/04/06 07:18:00;;;;;;;7.57;3.15;;;2.40;2.20;;;;;;5092922;28;20176;-68
2021/04/06 07:20:27;;;;;;;8.70;2.45;;;2.40;1.00;;;;;;5094237;28;20569;-68
2021/04/06 07:22:57;;;;;;;5.95;2.50;;;2.60;99.90;;;;;;5094043;28;20195;-69
2021/04/06 07:25:23;;;;;;;4.65;2.17;;;2.80;99.90;;;;;;5094383;28;20660;-68
2021/04/06 07:27:49;;;;;;;5.07;2.23;;;2.50;32.60;;;;;;5094490;28;20195;-68
2021/04/06 07:30:15;;;;;;;8.83;2.80;;;2.50;65.40;;;;;;5093764;28;20179;-70
2021/04/06 07:32:41;;;;;;;10.50;2.30;;;2.60;12.60;;;;;;5093746;28;20911;-68
2021/04/06 07:35:09;;;;;;;7.65;2.58;;;2.80;1.00;;;;;;5092505;28;20505;-68
2021/04/06 07:37:39;;;;;;;9.05;3.33;;;2.90;1.00;;;;;;5093854;28;20171;-68
2021/04/06 07:40:09;;;;;;;18.35;3.10;;;2.80;1.00;;;;;;5093831;28;20167;-68
2021/04/06 07:42:37;;;;;;;3.20;2.63;;;3.00;1.00;;;;;;5093374;28;20553;-68
2021/04/06 07:45:25;;;;;;;13.48;2.67;;;2.90;1.00;;;;;;5093579;28;20173;-69
2021/04/06 07:47:51;;;;;;;8.00;2.70;;;2.90;1.00;;;;;;5079495;28;20175;-69
2021/04/06 07:50:35;;;;;;;7.75;2.70;;;3.10;1.00;;;;;;5093417;28;20199;-69
2021/04/06 07:53:31;;;;;;;6.13;2.90;;;3.00;1.00;;;;;;5093390;28;20194;-69
2021/04/06 07:55:58;;;;;;;11.48;2.95;;;2.80;1.00;;;;;;5076714;28;20602;-68
2021/04/06 07:58:44;;;;;;;4.70;2.70;;;3.10;1.00;;;;;;5093382;28;20194;-69
2021/04/06 08:01:10;;;;;;;7.30;2.65;;;3.00;1.00;;;;;;5091997;28;20181;-69
2021/04/06 08:03:54;;;;;;;11.05;3.08;;;3.10;1.00;;;;;;5093297;28;20179;-68
2021/04/06 08:06:21;;;;;;;6.97;2.33;;;3.00;1.00;;;;;;5093439;28;20231;-68
2021/04/06 08:08:47;;;;;;;6.78;2.28;;;3.10;1.00;;;;;;5093070;28;20679;-68
2021/04/06 08:11:13;;;;;;;5.60;2.27;;;3.10;1.00;;;;;;5093073;28;20246;-69
2021/04/06 08:13:39;;;;;;;14.23;2.77;;;3.10;1.00;;;;;;5093613;28;20192;-69
2021/04/06 08:16:15;;;;;;;9.68;2.28;;;3.10;1.00;;;;;;5093411;28;20654;-69
2021/04/06 08:19:07;;;;;;;6.13;2.45;;;3.10;1.00;;;;;;5093415;28;20189;-69
2021/04/06 08:21:33;;;;;;;5.97;1.90;;;3.10;1.00;;;;;;5089507;28;20203;-69
2021/04/06 08:23:58;;;;;;;9.63;3.17;;;3.00;1.00;;;;;;5094695;28;20182;-69
2021/04/06 08:26:25;;;;;;;7.83;3.00;;;3.00;1.00;;;;;;5094364;28;20172;-69
2021/04/06 08:28:50;;;;;;;5.10;3.05;;;3.10;1.00;;;;;;5092753;28;20201;-69
2021/04/06 08:31:19;;;;;;;11.00;3.10;;;3.10;1.00;;;;;;5093654;28;20207;-69
2021/04/06 08:33:44;;;;;;;12.45;5.03;;;3.30;1.00;;;;;;5094008;28;20187;-69
2021/04/06 08:36:10;;;;;;;4.60;1.97;;;3.70;1.00;;;;;;5094967;28;20660;-69
2021/04/06 08:38:39;;;;;;;17.17;4.00;;;3.30;1.00;;;;;;5093967;28;20377;-68
2021/04/06 08:41:35;;;;;;;8.73;2.67;;;3.30;1.00;;;;;;5094541;28;20168;-69
2021/04/06 08:44:05;;;;;;;16.30;3.22;;;3.60;1.00;;;;;;5077269;28;20380;-70
2021/04/06 08:46:40;;;;;;;18.10;2.60;;;3.80;1.00;;;;;;5092805;28;20497;-69
2021/04/06 08:49:40;;;;;;;8.02;1.90;;;3.60;1.00;;;;;;5093125;28;20147;-69
2021/04/06 08:52:11;;;;;;;11.00;2.65;;;3.80;1.00;;;;;;5078958;28;20769;-69
2021/04/06 08:54:37;;;;;;;13.23;4.05;;;3.80;1.00;;;;;;5092433;28;20148;-69
2021/04/06 08:57:05;;;;;;;6.27;2.40;;;4.00;1.00;;;;;;5092739;28;20170;-69
2021/04/06 08:59:35;;;;;;;11.00;3.10;;;3.90;1.00;;;;;;5092927;28;20542;-69
2021/04/06 09:02:17;;;;;;;8.90;3.00;;;3.80;1.00;;;;;;5092837;28;20198;-70
2021/04/06 09:04:48;;;;;;;7.55;2.05;;;3.80;1.00;;;;;;5093236;28;20151;-69
2021/04/06 09:07:28;;;;;;;5.30;1.92;;;4.10;1.00;;;;;;5093202;28;20151;-69
2021/04/06 09:10:00;;;;;;;6.47;3.10;;;4.20;1.00;;;;;;5093365;28;20699;-70
2021/04/06 09:12:26;;;;;;;7.00;2.28;;;4.60;1.00;;;;;;5097285;28;20272;-69
2021/04/06 09:14:53;;;;;;;10.77;3.37;;;4.10;99.90;;;;;;5096604;28;20214;-69
2021/04/06 09:17:18;;;;;;;9.13;1.90;;;4.20;1.00;;;;;;5096696;28;20754;-69
2021/04/06 09:19:46;;;;;;;2.97;1.90;;;3.90;99.90;;;;;;5096387;28;20287;-69
2021/04/06 09:22:13;;;;;;;10.20;2.10;;;4.20;1.00;;;;;;5096283;28;20218;-69
2021/04/06 09:24:41;;;;;;;4.95;3.40;;;4.00;1.00;;;;;;5096780;28;20209;-69
2021/04/06 09:27:08;;;;;;;6.75;2.00;;;3.80;1.00;;;;;;5096409;28;20636;-69
2021/04/06 09:29:39;;;;;;;4.20;2.05;;;3.70;1.00;;;;;;5096426;28;20171;-69
2021/04/06 09:32:06;;;;;;;7.07;2.85;;;3.70;1.00;;;;;;5096697;28;20151;-69
2021/04/06 09:34:40;;;;;;;8.13;1.75;;;4.20;1.00;;;;;;5096837;28;20492;-69
2021/04/06 09:37:12;;;;;;;7.13;1.70;;;4.40;1.00;;;;;;5096148;28;20198;-69
2021/04/06 09:39:42;;;;;;;3.55;1.52;;;4.30;1.00;;;;;;5096784;28;20163;-69
2021/04/06 09:42:09;;;;;;;4.75;1.90;;;4.10;1.00;;;;;;5096248;28;20278;-69
2021/04/06 09:44:38;;;;;;;4.53;2.35;;;3.90;1.00;;;;;;5095400;28;20194;-69
2021/04/06 09:47:12;;;;;;;4.78;1.35;;;3.80;1.00;;;;;;5096652;28;20251;-69
2021/04/06 09:49:45;;;;;;;7.03;1.95;;;4.00;1.00;;;;;;5096567;28;20167;-69
2021/04/06 09:52:16;;;;;;;6.45;2.10;;;4.30;1.00;;;;;;5095786;28;20155;-69
2021/04/06 09:54:50;;;;;;;3.28;1.33;;;4.30;99.90;;;;;;5095806;28;20163;-69
2021/04/06 09:57:17;;;;;;;6.43;2.25;;;4.30;99.90;;;;;;5096007;28;20152;-69
2021/04/06 09:59:45;;;;;;;6.30;2.38;;;4.20;99.90;;;;;;5095848;28;20262;-69
2021/04/06 10:02:20;;;;;;;4.50;1.35;;;4.70;99.90;;;;;;5095797;28;20195;-68
2021/04/06 10:04:47;;;;;;;2.30;1.67;;;4.80;99.90;;;;;;5095825;28;20156;-69
2021/04/06 10:07:14;;;;;;;8.48;1.73;;;4.50;99.90;;;;;;5095612;28;20163;-69
2021/04/06 10:09:42;;;;;;;4.38;1.73;;;4.50;99.90;;;;;;5096045;28;20301;-69
2021/04/06 10:12:09;;;;;;;5.28;1.90;;;4.50;99.90;;;;;;5095794;28;20216;-70
2021/04/06 10:14:36;;;;;;;4.53;1.40;;;4.50;99.90;;;;;;5094284;28;20182;-68
2021/04/06 10:17:04;;;;;;;6.53;2.00;;;4.70;99.90;;;;;;5095647;28;20168;-68
2021/04/06 10:19:32;;;;;;;2.35;1.40;;;4.70;99.90;;;;;;5095701;28;20170;-67
2021/04/06 10:22:02;;;;;;;3.90;2.00;;;5.60;99.90;;;;;;5095090;28;20195;-68
2021/04/06 10:24:30;;;;;;;4.97;2.22;;;5.70;99.90;;;;;;5094090;28;20171;-68
2021/04/06 10:27:18;;;;;;;12.57;2.05;;;5.70;99.90;;;;;;5097347;28;20159;-68
2021/04/06 10:29:45;;;;;;;5.93;1.83;;;5.00;99.90;;;;;;5095328;28;20159;-67
2021/04/06 10:32:25;;;;;;;6.30;1.70;;;4.90;99.90;;;;;;5094980;28;20164;-68
2021/04/06 10:34:53;;;;;;;9.82;4.20;;;5.40;99.90;;;;;;5094006;28;20163;-67
2021/04/06 10:37:19;;;;;;;7.57;1.83;;;6.10;99.90;;;;;;5095812;28;20258;-68
2021/04/06 10:39:45;;;;;;;6.18;1.80;;;5.50;99.90;;;;;;5095176;28;20163;-68
2021/04/06 10:42:14;;;;;;;4.17;2.03;;;5.30;99.90;;;;;;5094829;28;20206;-68
2021/04/06 10:44:41;;;;;;;7.07;2.33;;;5.10;99.90;;;;;;5095080;28;20394;-68
2021/04/06 10:47:07;;;;;;;4.18;2.25;;;5.20;99.90;;;;;;5095037;28;20159;-68
2021/04/06 10:49:33;;;;;;;4.93;2.05;;;5.30;99.90;;;;;;5094844;28;20646;-68
2021/04/06 10:52:07;;;;;;;9.77;1.97;;;5.10;99.90;;;;;;5094930;28;20250;-68
2021/04/06 10:54:33;;;;;;;7.35;2.00;;;5.00;99.90;;;;;;5095113;28;20493;-68
2021/04/06 10:56:58;;;;;;;5.30;2.37;;;5.10;99.90;;;;;;5094867;28;20167;-69
2021/04/06 10:59:37;;;;;;;6.60;2.07;;;5.30;99.90;;;;;;5094769;28;20236;-68
2021/04/06 11:02:03;;;;;;;5.95;2.30;;;4.70;99.90;;;;;;5093434;28;20197;-68
2021/04/06 11:04:36;;;;;;;7.78;2.15;;;4.80;99.90;;;;;;5094332;28;20221;-68
2021/04/06 11:07:04;;;;;;;3.75;1.60;;;4.30;1.00;;;;;;5094482;28;20183;-68
2021/04/06 11:09:35;;;;;;;3.40;1.65;;;4.40;99.90;;;;;;5094953;28;20172;-69
2021/04/06 11:12:02;;;;;;;5.22;1.38;;;4.40;99.90;;;;;;5094593;28;20175;-69
2021/04/06 11:14:30;;;;;;;4.22;1.77;;;5.50;99.90;;;;;;5094632;28;20171;-69
2021/04/06 11:16:56;;;;;;;5.50;1.77;;;5.70;99.90;;;;;;5093204;28;20171;-70
2021/04/06 11:19:28;;;;;;;1.40;1.00;;;5.70;99.90;;;;;;5094362;28;20175;-68
2021/04/06 11:21:56;;;;;;;3.75;1.20;;;5.10;99.90;;;;;;5095145;28;20203;-69
2021/04/06 11:24:25;;;;;;;3.40;1.35;;;5.40;99.90;;;;;;5094785;28;20264;-69
2021/04/06 11:26:52;;;;;;;3.95;1.00;;;5.50;99.90;;;;;;5094427;28;20159;-69
2021/04/06 11:29:25;;;;;;;4.95;2.10;;;5.80;99.90;;;;;;5092823;28;20537;-69
2021/04/06 11:31:55;;;;;;;4.10;1.50;;;5.90;99.90;;;;;;5094232;28;20187;-69
2021/04/06 11:34:21;;;;;;;11.60;2.20;;;5.90;99.90;;;;;;5093280;28;20634;-68
2021/04/06 11:36:48;;;;;;;1.73;1.20;;;6.10;99.90;;;;;;5094187;28;20265;-69
2021/04/06 11:39:15;;;;;;;2.70;1.15;;;5.60;99.90;;;;;;5094631;28;20249;-68
2021/04/06 11:41:44;;;;;;;3.35;1.80;;;5.40;99.90;;;;;;5092687;28;20195;-68
2021/04/06 11:44:10;;;;;;;2.13;0.85;;;4.80;99.90;;;;;;5094144;28;20659;-68
2021/04/06 11:46:36;;;;;;;3.77;1.37;;;4.40;1.00;;;;;;5094088;28;20171;-69
2021/04/06 11:49:04;;;;;;;1.88;0.95;;;3.60;1.00;;;;;;5093628;28;20619;-69
2021/04/06 11:51:30;;;;;;;3.35;0.95;;;3.00;1.00;;;;;;5093967;28;20168;-69
2021/04/06 11:53:56;;;;;;;5.40;1.10;;;2.80;99.90;;;;;;5093459;28;20197;-68
2021/04/06 11:56:22;;;;;;;5.70;1.70;;;2.80;99.90;;;;;;5093447;28;20163;-68
2021/04/06 11:58:47;;;;;;;3.50;1.30;;;3.30;1.00;;;;;;5093261;28;20163;-69
2021/04/06 12:01:13;;;;;;;4.90;1.93;;;3.10;1.00;;;;;;5093664;28;20816;-68
2021/04/06 12:03:39;;;;;;;3.40;1.20;;;3.10;1.00;;;;;;5093642;28;20226;-69
2021/04/06 12:06:04;;;;;;;1.63;0.93;;;3.60;1.00;;;;;;5093329;28;20174;-68
2021/04/06 12:08:30;;;;;;;1.40;1.17;;;3.60;1.00;;;;;;5093416;28;20248;-68
2021/04/06 12:10:56;;;;;;;5.40;1.97;;;4.40;1.00;;;;;;5093714;28;20624;-68
2021/04/06 12:13:21;;;;;;;1.83;0.80;;;4.10;1.00;;;;;;5093224;28;20270;-68
2021/04/06 12:15:47;;;;;;;1.80;0.93;;;3.70;1.00;;;;;;5093437;28;21044;-69
2021/04/06 12:18:13;;;;;;;8.93;0.83;;;4.20;1.00;;;;;;5093745;28;20167;-68
2021/04/06 12:20:40;;;;;;;1.50;0.70;;;3.30;1.00;;;;;;5093389;28;20175;-68
2021/04/06 12:23:05;;;;;;;3.10;0.80;;;2.80;99.90;;;;;;5093327;28;20191;-69
2021/04/06 12:25:31;;;;;;;1.57;0.83;;;2.50;99.90;;;;;;5093670;28;20542;-69
2021/04/06 12:27:56;;;;;;;1.53;0.60;;;2.70;99.90;;;;;;5093340;28;20228;-69
2021/04/06 12:30:23;;;;;;;2.73;0.60;;;2.40;1.00;;;;;;5093047;28;20189;-70
2021/04/06 12:32:48;;;;;;;2.17;0.70;;;2.20;99.90;;;;;;5093514;28;20598;-68
2021/04/06 12:35:14;;;;;;;1.73;0.70;;;2.00;12.40;;;;;;5092995;28;20168;-68
2021/04/06 12:37:40;;;;;;;4.83;1.00;;;2.10;1.00;;;;;;5092957;28;20221;-68
2021/04/06 12:40:09;;;;;;;2.77;0.83;;;2.70;1.00;;;;;;5093469;28;20214;-69
2021/04/06 12:42:37;;;;;;;3.78;0.73;;;3.40;99.90;;;;;;5093395;28;20431;-69
2021/04/06 12:45:05;;;;;;;2.15;0.60;;;3.00;1.00;;;;;;5093181;28;20251;-69
2021/04/06 12:47:31;;;;;;;3.00;0.95;;;3.40;1.00;;;;;;5093167;28;20195;-68
2021/04/06 12:49:56;;;;;;;1.20;1.03;;;3.60;1.00;;;;;;5093201;28;20550;-69
2021/04/06 12:52:22;;;;;;;2.27;1.13;;;4.50;1.00;;;;;;5093228;28;20202;-69
2021/04/06 12:54:48;;;;;;;2.37;1.10;;;4.70;1.00;;;;;;5092728;28;20206;-68
2021/04/06 12:57:13;;;;;;;3.10;1.07;;;4.80;1.00;;;;;;5092659;28;20282;-68
2021/04/06 12:59:39;;;;;;;2.20;1.20;;;5.20;1.00;;;;;;5092992;28;20163;-69
2021/04/06 13:02:04;;;;;;;3.83;1.93;;;5.90;1.00;;;;;;5092830;28;20198;-69
2021/04/06 13:04:30;;;;;;;3.37;1.70;;;6.40;1.00;;;;;;5091394;28;20176;-69
2021/04/06 13:06:55;;;;;;;2.07;1.47;;;6.90;1.00;;;;;;5092756;28;20531;-69
2021/04/06 13:09:22;;;;;;;6.23;2.03;;;7.20;1.00;;;;;;5092462;28;20526;-69
2021/04/06 13:11:47;;;;;;;5.60;1.10;;;6.70;1.00;;;;;;5092651;28;20167;-69
2021/04/06 13:14:13;;;;;;;3.97;1.53;;;6.10;99.90;;;;;;5092717;28;20199;-68